createdAt,value
2023-05-12T00:00:49.188Z,94.26
2023-05-12T00:01:50.940Z,94.47
2023-05-12T00:02:52.669Z,94.15
2023-05-12T00:03:54.551Z,94.53
2023-05-12T00:04:56.770Z,94.75
2023-05-12T00:06:00.432Z,94.63
2023-05-12T00:07:02.087Z,94.56
2023-05-12T00:08:03.768Z,94.57
2023-05-12T00:09:06.285Z,94.51
2023-05-12T00:10:08.183Z,94.99
2023-05-12T00:11:09.837Z,95.43
2023-05-12T00:12:11.451Z,95.24
2023-05-12T00:13:13.075Z,94.67
2023-05-12T00:14:14.709Z,94.65
2023-05-12T00:15:16.454Z,94.10
2023-05-12T00:16:18.991Z,94.48
2023-05-12T00:17:20.813Z,94.43
2023-05-12T00:18:22.876Z,94.51
2023-05-12T00:19:24.495Z,93.67
2023-05-12T00:20:26.120Z,93.66
2023-05-12T00:21:27.756Z,94.18
2023-05-12T00:22:29.451Z,93.99
2023-05-12T00:23:31.023Z,94.13
2023-05-12T00:24:32.600Z,94.60
2023-05-12T00:25:34.258Z,94.67
2023-05-12T00:26:35.986Z,94.08
2023-05-12T00:27:37.664Z,93.97
2023-05-12T00:28:39.252Z,93.72
2023-05-12T00:29:40.823Z,93.62
2023-05-12T00:30:42.383Z,93.78
2023-05-12T00:31:44.063Z,93.79
2023-05-12T00:32:45.751Z,93.58
2023-05-12T00:33:47.459Z,93.56
2023-05-12T00:34:50.339Z,94.00
2023-05-12T00:35:51.958Z,93.73
2023-05-12T00:36:53.835Z,93.94
2023-05-12T00:37:55.711Z,94.10
2023-05-12T00:38:57.395Z,93.92
2023-05-12T00:39:59.017Z,92.78
2023-05-12T00:41:01.498Z,92.97
2023-05-12T00:42:05.686Z,93.29
2023-05-12T00:43:07.490Z,93.67
2023-05-12T00:44:09.076Z,93.67
2023-05-12T00:45:11.053Z,93.47
2023-05-12T00:46:12.728Z,93.98
2023-05-12T00:47:14.641Z,94.01
2023-05-12T00:48:16.224Z,93.48
2023-05-12T00:49:17.821Z,93.43
2023-05-12T00:50:19.660Z,93.94
2023-05-12T00:51:21.426Z,94.10
2023-05-12T00:52:23.079Z,93.85
2023-05-12T00:53:24.733Z,93.22
2023-05-12T00:54:26.973Z,93.85
2023-05-12T00:55:29.724Z,94.33
2023-05-12T00:56:31.325Z,94.28
2023-05-12T00:57:33.590Z,93.66
2023-05-12T00:58:35.221Z,93.02
2023-05-12T00:59:37.508Z,92.84
2023-05-12T01:00:39.027Z,93.42
2023-05-12T01:01:40.794Z,94.16
2023-05-12T01:02:42.658Z,94.06
2023-05-12T01:03:44.913Z,94.35
2023-05-12T01:04:46.636Z,94.33
2023-05-12T01:06:01.714Z,94.09
2023-05-12T01:07:05.783Z,93.37
2023-05-12T01:08:07.488Z,93.92
2023-05-12T01:09:09.342Z,93.29
2023-05-12T01:10:18.873Z,94.28
2023-05-12T01:11:21.853Z,93.57
2023-05-12T01:12:26.740Z,93.03
2023-05-12T01:13:29.008Z,93.14
2023-05-12T01:14:30.697Z,92.79
2023-05-12T01:15:32.299Z,92.86
2023-05-12T01:16:37.286Z,93.16
2023-05-12T01:17:39.168Z,94.37
2023-05-12T01:18:41.119Z,92.67
2023-05-12T01:19:52.710Z,92.99
2023-05-12T01:20:55.790Z,93.17
2023-05-12T01:21:57.411Z,93.14
2023-05-12T01:22:59.184Z,93.34
2023-05-12T01:24:02.878Z,93.35
2023-05-12T01:25:05.878Z,93.46
2023-05-12T01:26:08.492Z,93.51
2023-05-12T01:27:10.087Z,93.51
2023-05-12T01:28:11.698Z,93.56
2023-05-12T01:29:13.272Z,93.27
2023-05-12T01:30:18.303Z,93.30
2023-05-12T01:31:21.206Z,93.88
2023-05-12T01:32:23.075Z,93.87
2023-05-12T01:33:24.741Z,94.04
2023-05-12T01:34:26.312Z,93.64
2023-05-12T01:35:28.023Z,93.63
2023-05-12T01:36:29.692Z,93.92
2023-05-12T01:37:31.328Z,93.98
2023-05-12T01:38:32.966Z,93.53
2023-05-12T01:39:34.538Z,93.83
2023-05-12T01:40:37.687Z,94.18
2023-05-12T01:41:39.368Z,93.79
2023-05-12T01:42:41.796Z,93.35
2023-05-12T01:43:43.495Z,93.92
2023-05-12T01:44:45.531Z,93.85
2023-05-12T01:45:47.133Z,94.17
2023-05-12T01:46:49.682Z,94.28
2023-05-12T01:47:51.406Z,94.79
2023-05-12T01:48:53.075Z,94.86
2023-05-12T01:49:54.728Z,94.12
2023-05-12T01:50:56.320Z,94.37
2023-05-12T01:51:57.960Z,94.39
2023-05-12T01:52:59.570Z,94.36
2023-05-12T01:54:01.237Z,94.48
2023-05-12T01:55:02.880Z,93.96
2023-05-12T01:56:04.585Z,93.65
2023-05-12T01:57:06.219Z,94.12
2023-05-12T01:58:07.811Z,94.32
2023-05-12T01:59:09.466Z,94.93
2023-05-12T02:00:12.812Z,94.67
2023-05-12T02:01:14.518Z,94.69
2023-05-12T02:02:16.396Z,94.14
2023-05-12T02:03:18.216Z,94.64
2023-05-12T02:04:19.945Z,94.12
2023-05-12T02:05:22.316Z,94.81
2023-05-12T02:06:23.967Z,94.97
2023-05-12T02:07:25.653Z,94.33
2023-05-12T02:08:27.246Z,94.33
2023-05-12T02:09:28.873Z,95.26
2023-05-12T02:10:30.550Z,95.14
2023-05-12T02:11:32.124Z,94.83
2023-05-12T02:12:34.632Z,94.68
2023-05-12T02:13:36.230Z,94.62
2023-05-12T02:14:37.856Z,95.07
2023-05-12T02:15:39.492Z,95.16
2023-05-12T02:16:41.236Z,95.09
2023-05-12T02:17:43.060Z,94.80
2023-05-12T02:18:44.785Z,94.87
2023-05-12T02:19:46.410Z,95.24
2023-05-12T02:20:48.050Z,95.27
2023-05-12T02:21:49.647Z,95.59
2023-05-12T02:22:51.298Z,95.93
2023-05-12T02:23:52.969Z,95.97
2023-05-12T02:24:54.590Z,96.23
2023-05-12T02:25:56.240Z,96.17
2023-05-12T02:26:57.854Z,95.78
2023-05-12T02:27:59.478Z,96.05
2023-05-12T02:29:01.047Z,96.41
2023-05-12T02:30:02.649Z,96.57
2023-05-12T02:31:04.598Z,96.35
2023-05-12T02:32:06.366Z,95.89
2023-05-12T02:33:08.106Z,96.08
2023-05-12T02:34:09.731Z,96.64
2023-05-12T02:35:11.332Z,96.25
2023-05-12T02:36:12.930Z,96.32
2023-05-12T02:37:14.609Z,96.18
2023-05-12T02:38:16.270Z,95.91
2023-05-12T02:39:17.875Z,96.29
2023-05-12T02:40:19.851Z,96.40
2023-05-12T02:41:22.473Z,96.35
2023-05-12T02:42:24.144Z,96.09
2023-05-12T02:43:25.815Z,95.57
2023-05-12T02:44:27.827Z,95.54
2023-05-12T02:45:29.448Z,95.95
2023-05-12T02:46:31.049Z,96.21
2023-05-12T02:47:33.137Z,95.87
2023-05-12T02:48:34.928Z,95.63
2023-05-12T02:49:36.584Z,95.59
2023-05-12T02:50:38.248Z,96.66
2023-05-12T02:51:39.924Z,96.17
2023-05-12T02:52:41.502Z,95.95
2023-05-12T02:53:43.108Z,95.94
2023-05-12T02:54:44.755Z,95.97
2023-05-12T02:55:46.366Z,96.38
2023-05-12T02:56:47.949Z,96.02
2023-05-12T02:57:49.546Z,96.00
2023-05-12T02:58:51.166Z,95.87
2023-05-12T02:59:52.831Z,95.97
2023-05-12T03:01:06.729Z,96.24
2023-05-12T03:02:12.349Z,96.49
2023-05-12T03:03:14.091Z,96.36
2023-05-12T03:04:16.765Z,96.27
2023-05-12T03:05:18.400Z,96.29
2023-05-12T03:06:20.026Z,96.08
2023-05-12T03:07:21.651Z,96.27
2023-05-12T03:08:23.267Z,95.82
2023-05-12T03:09:24.969Z,96.21
2023-05-12T03:10:26.563Z,96.45
2023-05-12T03:11:28.174Z,96.61
2023-05-12T03:12:30.001Z,96.82
2023-05-12T03:13:31.681Z,96.91
2023-05-12T03:14:34.340Z,96.67
2023-05-12T03:15:36.782Z,96.32
2023-05-12T03:16:38.603Z,96.03
2023-05-12T03:17:40.506Z,96.24
2023-05-12T03:18:42.140Z,96.68
2023-05-12T03:19:43.833Z,96.45
2023-05-12T03:20:45.476Z,96.50
2023-05-12T03:21:47.502Z,96.26
2023-05-12T03:22:49.371Z,96.59
2023-05-12T03:23:52.799Z,97.07
2023-05-12T03:24:54.452Z,96.86
2023-05-12T03:25:56.062Z,97.20
2023-05-12T03:26:57.685Z,96.68
2023-05-12T03:27:59.349Z,96.96
2023-05-12T03:29:01.234Z,97.14
2023-05-12T03:30:05.118Z,97.08
2023-05-12T03:31:06.777Z,96.96
2023-05-12T03:32:08.906Z,97.10
2023-05-12T03:33:10.599Z,97.07
2023-05-12T03:34:12.360Z,97.12
2023-05-12T03:35:14.049Z,97.07
2023-05-12T03:36:15.826Z,96.92
2023-05-12T03:37:17.419Z,96.68
2023-05-12T03:38:19.080Z,96.84
2023-05-12T03:39:22.920Z,96.78
2023-05-12T03:40:24.888Z,96.88
2023-05-12T03:41:26.777Z,96.99
2023-05-12T03:42:28.681Z,96.73
2023-05-12T03:43:30.265Z,96.88
2023-05-12T03:44:31.932Z,96.84
2023-05-12T03:45:33.540Z,96.81
2023-05-12T03:46:35.247Z,96.80
2023-05-12T03:47:37.328Z,96.37
2023-05-12T03:48:39.036Z,96.63
2023-05-12T03:49:41.231Z,96.69
2023-05-12T03:50:42.828Z,96.30
2023-05-12T03:51:44.410Z,96.16
2023-05-12T03:52:45.970Z,96.55
2023-05-12T03:53:47.913Z,96.63
2023-05-12T03:54:49.587Z,96.67
2023-05-12T03:55:51.388Z,96.59
2023-05-12T03:56:53.434Z,96.56
2023-05-12T03:57:55.071Z,96.16
2023-05-12T03:58:57.018Z,95.87
2023-05-12T03:59:58.601Z,95.59
2023-05-12T04:01:01.743Z,95.42
2023-05-12T04:02:03.456Z,95.56
2023-05-12T04:03:05.130Z,95.23
2023-05-12T04:04:06.825Z,95.21
2023-05-12T04:05:10.112Z,95.28
2023-05-12T04:06:11.956Z,95.60
2023-05-12T04:07:13.562Z,95.16
2023-05-12T04:08:15.217Z,95.36
2023-05-12T04:09:17.025Z,95.11
2023-05-12T04:10:18.840Z,95.35
2023-05-12T04:11:20.628Z,95.48
2023-05-12T04:12:22.414Z,95.92
2023-05-12T04:13:25.162Z,95.76
2023-05-12T04:14:39.119Z,96.03
2023-05-12T04:15:44.264Z,96.02
2023-05-12T04:16:46.028Z,96.28
2023-05-12T04:17:47.933Z,96.51
2023-05-12T04:18:49.692Z,96.40
2023-05-12T04:19:52.729Z,96.43
2023-05-12T04:20:57.412Z,96.53
2023-05-12T04:21:59.014Z,96.65
2023-05-12T04:23:00.640Z,96.80
2023-05-12T04:24:02.366Z,96.90
2023-05-12T04:25:04.130Z,96.81
2023-05-12T04:26:05.800Z,96.98
2023-05-12T04:27:07.437Z,96.51
2023-05-12T04:28:11.833Z,96.67
2023-05-12T04:29:13.725Z,96.36
2023-05-12T04:30:16.723Z,96.79
2023-05-12T04:31:18.405Z,96.73
2023-05-12T04:32:20.100Z,96.70
2023-05-12T04:33:21.729Z,96.45
2023-05-12T04:34:23.387Z,96.45
2023-05-12T04:35:25.015Z,96.54
2023-05-12T04:36:26.641Z,96.67
2023-05-12T04:37:28.369Z,96.42
2023-05-12T04:38:29.979Z,96.58
2023-05-12T04:39:31.574Z,96.00
2023-05-12T04:40:34.906Z,96.64
2023-05-12T04:41:36.859Z,96.83
2023-05-12T04:42:38.471Z,96.72
2023-05-12T04:44:46.222Z,96.59
2023-05-12T04:45:47.914Z,96.63
2023-05-12T04:46:53.488Z,96.96
2023-05-12T04:47:55.188Z,97.17
2023-05-12T04:48:57.073Z,96.96
2023-05-12T04:49:58.682Z,96.79
2023-05-12T04:51:00.683Z,97.00
2023-05-12T04:52:02.298Z,97.14
2023-05-12T04:53:03.890Z,97.33
2023-05-12T04:54:05.547Z,97.06
2023-05-12T04:55:07.935Z,97.20
2023-05-12T04:56:09.600Z,97.31
2023-05-12T04:57:11.301Z,96.96
2023-05-12T04:58:13.860Z,96.89
2023-05-12T04:59:18.329Z,97.07
2023-05-12T05:00:20.210Z,96.71
2023-05-12T05:01:22.078Z,97.21
2023-05-12T05:02:23.827Z,97.67
2023-05-12T05:03:25.696Z,97.16
2023-05-12T05:04:27.436Z,97.17
2023-05-12T05:05:29.109Z,97.35
2023-05-12T05:06:30.926Z,97.53
2023-05-12T05:07:32.520Z,97.87
2023-05-12T05:08:34.196Z,97.40
2023-05-12T05:09:36.603Z,97.67
2023-05-12T05:10:38.449Z,97.86
2023-05-12T05:11:40.132Z,97.95
2023-05-12T05:12:41.814Z,97.34
2023-05-12T05:13:43.429Z,97.74
2023-05-12T05:14:45.026Z,97.46
2023-05-12T05:15:53.507Z,97.66
2023-05-12T05:16:55.332Z,97.59
2023-05-12T05:17:57.776Z,97.59
2023-05-12T05:19:02.043Z,97.51
2023-05-12T05:20:11.719Z,97.68
2023-05-12T05:21:14.630Z,97.73
2023-05-12T05:22:16.925Z,97.90
2023-05-12T05:23:18.809Z,97.78
2023-05-12T05:24:20.439Z,97.79
2023-05-12T05:25:22.149Z,97.70
2023-05-12T05:26:23.815Z,97.49
2023-05-12T05:27:25.402Z,97.49
2023-05-12T05:28:27.046Z,97.67
2023-05-12T05:29:28.744Z,97.48
2023-05-12T05:30:30.468Z,97.89
2023-05-12T05:31:32.345Z,98.22
2023-05-12T05:32:35.867Z,96.38
2023-05-12T05:33:37.481Z,96.73
2023-05-12T05:34:39.145Z,97.03
2023-05-12T05:35:40.945Z,97.25
2023-05-12T05:36:42.528Z,97.20
2023-05-12T05:37:44.512Z,97.44
2023-05-12T05:38:46.094Z,97.09
2023-05-12T05:39:47.833Z,97.13
2023-05-12T05:40:53.767Z,97.07
2023-05-12T05:41:57.526Z,96.98
2023-05-12T05:42:59.116Z,97.17
2023-05-12T05:44:01.576Z,97.67
2023-05-12T05:45:03.320Z,97.23
2023-05-12T05:46:05.090Z,97.04
2023-05-12T05:47:06.824Z,96.83
2023-05-12T05:48:08.558Z,97.07
2023-05-12T05:49:10.294Z,97.23
2023-05-12T05:50:12.104Z,97.63
2023-05-12T05:51:13.844Z,97.96
2023-05-12T05:52:15.506Z,97.79
2023-05-12T05:53:18.579Z,97.16
2023-05-12T05:54:20.251Z,97.56
2023-05-12T05:55:22.306Z,97.71
2023-05-12T05:56:24.274Z,97.44
2023-05-12T05:57:28.245Z,97.15
2023-05-12T05:58:29.897Z,97.31
2023-05-12T05:59:32.269Z,97.09
2023-05-12T06:00:33.986Z,97.35
2023-05-12T06:01:35.712Z,98.05
2023-05-12T06:02:38.036Z,97.50
2023-05-12T06:03:39.811Z,97.24
2023-05-12T06:04:41.541Z,97.36
2023-05-12T06:05:43.355Z,97.38
2023-05-12T06:06:45.006Z,97.23
2023-05-12T06:07:46.648Z,97.45
2023-05-12T06:08:48.250Z,97.43
2023-05-12T06:09:49.842Z,97.48
2023-05-12T06:10:51.446Z,97.70
2023-05-12T06:11:53.056Z,97.33
2023-05-12T06:12:54.663Z,97.41
2023-05-12T06:13:56.248Z,97.17
2023-05-12T06:14:57.858Z,97.29
2023-05-12T06:15:59.588Z,97.41
2023-05-12T06:17:01.279Z,97.54
2023-05-12T06:18:03.046Z,96.52
2023-05-12T06:19:04.751Z,96.55
2023-05-12T06:20:07.499Z,96.94
2023-05-12T06:21:09.685Z,97.14
2023-05-12T06:22:11.314Z,97.04
2023-05-12T06:23:13.068Z,97.28
2023-05-12T06:24:14.735Z,97.36
2023-05-12T06:25:16.533Z,97.45
2023-05-12T06:26:18.155Z,97.13
2023-05-12T06:27:19.787Z,97.62
2023-05-12T06:28:21.359Z,97.40
2023-05-12T06:29:23.055Z,96.62
2023-05-12T06:30:24.799Z,97.26
2023-05-12T06:31:26.453Z,97.24
2023-05-12T06:32:28.168Z,97.22
2023-05-12T06:33:29.912Z,97.21
2023-05-12T06:34:31.947Z,97.31
2023-05-12T06:35:33.606Z,96.92
2023-05-12T06:36:35.185Z,96.70
2023-05-12T06:37:36.897Z,96.67
2023-05-12T06:38:38.522Z,96.90
2023-05-12T06:39:40.286Z,97.00
2023-05-12T06:40:42.105Z,96.60
2023-05-12T06:41:43.775Z,96.30
2023-05-12T06:42:45.432Z,96.79
2023-05-12T06:43:47.044Z,96.68
2023-05-12T06:44:48.693Z,96.82
2023-05-12T06:45:50.411Z,97.15
2023-05-12T06:46:52.203Z,96.25
2023-05-12T06:47:53.890Z,96.47
2023-05-12T06:48:55.740Z,95.92
2023-05-12T06:49:57.374Z,96.44
2023-05-12T06:50:59.063Z,96.41
2023-05-12T06:52:00.684Z,96.24
2023-05-12T06:53:02.479Z,96.22
2023-05-12T06:54:04.116Z,95.81
2023-05-12T06:55:05.951Z,96.62
2023-05-12T06:56:07.723Z,96.62
2023-05-12T06:57:09.914Z,96.18
2023-05-12T06:58:11.515Z,96.06
2023-05-12T06:59:13.397Z,96.56
2023-05-12T07:00:15.350Z,96.24
2023-05-12T07:01:17.244Z,96.12
2023-05-12T07:02:18.920Z,96.36
2023-05-12T07:03:20.635Z,95.78
2023-05-12T07:04:22.784Z,95.76
2023-05-12T07:05:24.857Z,95.88
2023-05-12T07:06:29.598Z,96.13
2023-05-12T07:07:31.650Z,96.12
2023-05-12T07:08:33.263Z,96.81
2023-05-12T07:09:34.886Z,95.89
2023-05-12T07:10:38.092Z,95.38
2023-05-12T07:11:39.958Z,95.74
2023-05-12T07:12:41.546Z,96.02
2023-05-12T07:13:43.452Z,95.08
2023-05-12T07:14:45.078Z,94.99
2023-05-12T07:15:46.782Z,95.41
2023-05-12T07:16:48.416Z,94.98
2023-05-12T07:17:50.438Z,95.31
2023-05-12T07:18:52.199Z,94.56
2023-05-12T07:19:53.793Z,94.73
2023-05-12T07:20:55.801Z,95.57
2023-05-12T07:21:58.714Z,94.84
2023-05-12T07:23:00.350Z,95.37
2023-05-12T07:24:02.215Z,95.75
2023-05-12T07:25:03.998Z,95.98
2023-05-12T07:26:06.338Z,95.89
2023-05-12T07:27:08.314Z,95.87
2023-05-12T07:28:09.919Z,95.40
2023-05-12T07:29:13.642Z,95.84
2023-05-12T07:30:15.653Z,95.95
2023-05-12T07:31:17.388Z,95.44
2023-05-12T07:32:19.123Z,95.23
2023-05-12T07:33:20.764Z,95.01
2023-05-12T07:34:22.351Z,95.30
2023-05-12T07:35:24.075Z,95.11
2023-05-12T07:36:25.675Z,95.44
2023-05-12T07:37:27.409Z,94.91
2023-05-12T07:38:29.095Z,95.14
2023-05-12T07:39:32.402Z,95.97
2023-05-12T07:40:34.656Z,95.98
2023-05-12T07:41:36.247Z,95.62
2023-05-12T07:42:37.977Z,95.96
2023-05-12T07:43:39.796Z,94.89
2023-05-12T07:44:41.449Z,94.85
2023-05-12T07:45:43.557Z,95.27
2023-05-12T07:46:45.255Z,95.18
2023-05-12T07:47:46.993Z,95.06
2023-05-12T07:48:48.656Z,95.41
2023-05-12T07:49:50.241Z,95.66
2023-05-12T07:50:51.922Z,95.14
2023-05-12T07:51:53.533Z,94.57
2023-05-12T07:52:55.365Z,93.03
2023-05-12T07:53:58.203Z,93.29
2023-05-12T07:54:59.875Z,93.17
2023-05-12T07:56:01.565Z,93.73
2023-05-12T07:57:03.325Z,93.41
2023-05-12T07:58:05.020Z,92.17
2023-05-12T07:59:07.334Z,92.24
2023-05-12T08:00:11.130Z,92.61
2023-05-12T08:01:13.043Z,91.81
2023-05-12T08:02:14.814Z,92.65
2023-05-12T08:03:16.787Z,92.72
2023-05-12T08:04:18.480Z,92.83
2023-05-12T08:05:20.354Z,92.68
2023-05-12T08:06:22.038Z,92.46
2023-05-12T08:07:23.764Z,92.73
2023-05-12T08:08:25.351Z,92.22
2023-05-12T08:09:26.969Z,93.14
2023-05-12T08:10:29.993Z,92.39
2023-05-12T08:11:31.668Z,91.93
2023-05-12T08:12:33.786Z,92.27
2023-05-12T08:13:37.046Z,92.24
2023-05-12T08:14:38.663Z,92.35
2023-05-12T08:15:40.354Z,92.17
2023-05-12T08:16:45.514Z,92.95
2023-05-12T08:17:47.230Z,91.99
2023-05-12T08:18:48.932Z,92.53
2023-05-12T08:19:50.670Z,92.89
2023-05-12T08:20:52.275Z,92.78
2023-05-12T08:21:54.239Z,93.46
2023-05-12T08:22:55.999Z,93.50
2023-05-12T08:23:57.648Z,93.07
2023-05-12T08:24:59.248Z,93.13
2023-05-12T08:26:01.032Z,92.66
2023-05-12T08:27:02.637Z,92.29
2023-05-12T08:28:05.395Z,91.66
2023-05-12T08:29:08.751Z,92.65
2023-05-12T08:30:11.028Z,92.42
2023-05-12T08:31:12.706Z,92.71
2023-05-12T08:32:15.174Z,92.53
2023-05-12T08:33:16.812Z,93.05
2023-05-12T08:34:18.433Z,92.68
2023-05-12T08:35:20.244Z,93.19
2023-05-12T08:36:21.894Z,92.30
2023-05-12T08:37:23.564Z,91.58
2023-05-12T08:38:25.153Z,92.25
2023-05-12T08:39:30.916Z,90.85
2023-05-12T08:40:37.134Z,90.79
2023-05-12T08:41:56.921Z,91.28
2023-05-12T08:43:35.098Z,91.49
2023-05-12T08:44:39.916Z,90.22
2023-05-12T08:45:41.503Z,90.92
2023-05-12T08:46:43.351Z,91.38
2023-05-12T08:47:46.160Z,91.52
2023-05-12T08:48:47.830Z,90.89
2023-05-12T08:49:52.606Z,91.04
2023-05-12T08:50:54.385Z,92.03
2023-05-12T08:51:58.078Z,91.45
2023-05-12T08:53:00.179Z,91.07
2023-05-12T08:54:01.870Z,91.53
2023-05-12T08:55:05.070Z,90.78
2023-05-12T08:57:12.576Z,90.47
2023-05-12T08:58:15.359Z,90.59
2023-05-12T08:59:17.001Z,90.37
2023-05-12T09:00:19.082Z,91.23
2023-05-12T09:01:21.195Z,90.95
2023-05-12T09:02:23.972Z,92.06
2023-05-12T09:03:27.142Z,91.31
2023-05-12T09:04:28.841Z,92.31
2023-05-12T09:05:31.170Z,91.86
2023-05-12T09:06:33.009Z,91.83
2023-05-12T09:07:34.755Z,91.18
2023-05-12T09:08:36.431Z,91.83
2023-05-12T09:09:38.170Z,90.57
2023-05-12T09:10:39.895Z,90.51
2023-05-12T09:11:41.887Z,90.59
2023-05-12T09:12:44.547Z,90.53
2023-05-12T09:14:14.946Z,90.58
2023-05-12T09:15:19.458Z,90.34
2023-05-12T09:16:25.184Z,91.45
2023-05-12T09:17:26.852Z,91.23
2023-05-12T09:18:57.782Z,91.60
2023-05-12T09:19:59.565Z,91.42
2023-05-12T09:21:01.222Z,91.68
2023-05-12T09:22:02.832Z,91.37
2023-05-12T09:23:20.502Z,90.94
2023-05-12T09:24:32.064Z,91.03
2023-05-12T09:25:33.752Z,91.77
2023-05-12T09:26:45.724Z,92.31
2023-05-12T09:27:48.097Z,93.09
2023-05-12T09:28:50.988Z,91.31
2023-05-12T09:29:58.990Z,90.91
2023-05-12T09:31:01.504Z,92.68
2023-05-12T09:32:03.855Z,91.99
2023-05-12T09:33:09.588Z,91.67
2023-05-12T09:34:11.226Z,91.68
2023-05-12T09:35:13.038Z,89.24
2023-05-12T09:36:23.784Z,90.28
2023-05-12T09:37:31.844Z,89.46
2023-05-12T09:38:33.435Z,89.58
2023-05-12T09:39:35.271Z,89.49
2023-05-12T09:40:37.210Z,90.39
2023-05-12T09:41:39.557Z,90.85
2023-05-12T09:42:41.413Z,90.87
2023-05-12T09:43:46.343Z,89.18
2023-05-12T09:44:48.120Z,88.39
2023-05-12T09:45:50.808Z,89.15
2023-05-12T09:46:52.948Z,87.78
2023-05-12T09:47:54.918Z,87.41
2023-05-12T09:48:57.385Z,87.91
2023-05-12T09:49:59.471Z,88.87
2023-05-12T09:51:01.103Z,89.07
2023-05-12T09:52:04.226Z,87.86
2023-05-12T09:53:06.273Z,87.98
2023-05-12T09:54:08.114Z,88.54
2023-05-12T09:55:14.113Z,88.19
2023-05-12T09:56:16.577Z,87.79
2023-05-12T09:57:18.169Z,88.62
2023-05-12T09:58:20.418Z,88.43
2023-05-12T09:59:26.862Z,89.43
2023-05-12T10:00:46.255Z,89.08
2023-05-12T10:01:50.282Z,90.19
2023-05-12T10:02:52.116Z,91.04
2023-05-12T10:03:57.896Z,90.67
2023-05-12T10:05:01.521Z,91.10
2023-05-12T10:06:06.392Z,91.66
2023-05-12T10:07:10.287Z,90.59
2023-05-12T10:08:12.105Z,90.79
2023-05-12T10:09:32.117Z,90.63
2023-05-12T10:10:33.810Z,91.23
2023-05-12T10:11:35.521Z,90.16
2023-05-12T10:12:37.184Z,90.22
2023-05-12T10:13:38.873Z,91.82
2023-05-12T10:14:40.613Z,91.46
2023-05-12T10:15:42.230Z,90.98
2023-05-12T10:16:45.774Z,90.31
2023-05-12T10:17:47.591Z,90.54
2023-05-12T10:18:49.236Z,90.31
2023-05-12T10:19:50.951Z,90.93
2023-05-12T10:20:53.940Z,91.81
2023-05-12T10:21:56.750Z,91.08
2023-05-12T10:22:58.427Z,90.78
2023-05-12T10:24:00.041Z,90.73
2023-05-12T10:25:02.966Z,90.90
2023-05-12T10:26:05.241Z,91.19
2023-05-12T10:27:07.124Z,90.35
2023-05-12T10:28:09.229Z,90.52
2023-05-12T10:29:11.020Z,90.73
2023-05-12T10:30:13.067Z,91.55
2023-05-12T10:31:14.740Z,91.93
2023-05-12T10:32:16.566Z,91.90
2023-05-12T10:33:19.150Z,92.44
2023-05-12T10:34:21.688Z,90.79
2023-05-12T10:35:32.258Z,91.23
2023-05-12T10:36:50.282Z,91.40
2023-05-12T10:37:51.943Z,90.92
2023-05-12T10:38:53.769Z,90.06
2023-05-12T10:39:55.974Z,90.67
2023-05-12T10:41:01.973Z,90.95
2023-05-12T10:42:09.946Z,90.85
2023-05-12T10:43:22.968Z,91.03
2023-05-12T10:44:28.391Z,91.02
2023-05-12T10:45:35.558Z,90.56
2023-05-12T10:46:37.545Z,90.55
2023-05-12T10:47:39.286Z,90.41
2023-05-12T10:49:06.774Z,91.15
2023-05-12T10:50:08.734Z,90.98
2023-05-12T10:51:11.248Z,90.87
2023-05-12T10:52:13.533Z,92.80
2023-05-12T10:53:15.204Z,92.44
2023-05-12T10:54:21.387Z,91.95
2023-05-12T10:55:32.370Z,91.69
2023-05-12T10:56:37.334Z,90.96
2023-05-12T10:57:49.054Z,91.86
2023-05-12T10:59:29.555Z,90.99
2023-05-12T11:00:32.142Z,90.98
2023-05-12T11:01:34.840Z,91.58
2023-05-12T11:02:38.567Z,91.88
2023-05-12T11:03:42.063Z,92.12
2023-05-12T11:04:50.391Z,91.77
2023-05-12T11:06:02.904Z,92.06
2023-05-12T11:07:06.120Z,91.57
2023-05-12T11:08:09.203Z,91.27
2023-05-12T11:09:13.146Z,91.61
2023-05-12T11:10:15.553Z,91.31
2023-05-12T11:11:20.211Z,91.10
2023-05-12T11:12:21.925Z,90.58
2023-05-12T11:13:24.563Z,90.00
2023-05-12T11:14:26.196Z,89.63
2023-05-12T11:15:28.321Z,89.47
2023-05-12T11:16:29.967Z,89.49
2023-05-12T11:17:32.108Z,89.59
2023-05-12T11:18:34.023Z,90.51
2023-05-12T11:19:35.999Z,90.49
2023-05-12T11:20:37.638Z,89.51
2023-05-12T11:21:39.972Z,90.31
2023-05-12T11:22:42.858Z,90.68
2023-05-12T11:23:44.552Z,90.98
2023-05-12T11:24:46.367Z,91.63
2023-05-12T11:25:48.042Z,90.74
2023-05-12T11:26:52.493Z,91.26
2023-05-12T11:27:54.115Z,91.02
2023-05-12T11:28:59.082Z,90.58
2023-05-12T11:30:01.938Z,89.50
2023-05-12T11:31:03.710Z,90.80
2023-05-12T11:32:05.442Z,89.09
2023-05-12T11:33:07.199Z,89.27
2023-05-12T11:34:13.047Z,89.17
2023-05-12T11:35:16.813Z,90.44
2023-05-12T11:36:21.716Z,90.31
2023-05-12T11:37:23.492Z,91.07
2023-05-12T11:38:27.362Z,91.49
2023-05-12T11:39:32.465Z,90.96
2023-05-12T11:40:34.288Z,90.87
2023-05-12T11:41:35.897Z,90.91
2023-05-12T11:42:37.760Z,90.36
2023-05-12T11:43:39.351Z,91.28
2023-05-12T11:44:50.596Z,92.21
2023-05-12T11:45:52.444Z,91.20
2023-05-12T11:46:58.514Z,91.54
2023-05-12T11:48:11.607Z,91.40
2023-05-12T11:49:13.468Z,90.31
2023-05-12T11:50:23.009Z,91.40
2023-05-12T11:51:24.978Z,91.23
2023-05-12T11:52:27.198Z,91.17
2023-05-12T11:53:28.877Z,90.72
2023-05-12T11:54:30.843Z,90.55
2023-05-12T11:55:34.198Z,90.24
2023-05-12T11:56:36.562Z,89.95
2023-05-12T11:57:38.434Z,89.07
2023-05-12T11:58:40.256Z,89.08
2023-05-12T11:59:42.041Z,89.47
2023-05-12T12:00:43.761Z,89.59
2023-05-12T12:01:46.686Z,90.04
2023-05-12T12:02:48.564Z,90.09
2023-05-12T12:03:51.769Z,90.44
2023-05-12T12:04:53.724Z,90.26
2023-05-12T12:06:02.698Z,90.42
2023-05-12T12:07:05.818Z,90.64
2023-05-12T12:08:13.355Z,90.82
2023-05-12T12:09:14.958Z,90.14
2023-05-12T12:10:18.180Z,91.17
2023-05-12T12:11:22.067Z,91.18
2023-05-12T12:12:23.805Z,90.83
2023-05-12T12:13:26.014Z,90.32
2023-05-12T12:14:27.876Z,90.83
2023-05-12T12:15:29.517Z,91.31
2023-05-12T12:16:31.741Z,92.14
2023-05-12T12:17:33.598Z,92.28
2023-05-12T12:18:35.364Z,92.59
2023-05-12T12:19:37.013Z,93.12
2023-05-12T12:20:38.976Z,92.41
2023-05-12T12:21:40.834Z,92.06
2023-05-12T12:22:42.471Z,92.62
2023-05-12T12:23:50.932Z,92.84
2023-05-12T12:24:53.732Z,93.29
2023-05-12T12:25:55.402Z,93.70
2023-05-12T12:26:57.102Z,92.53
2023-05-12T12:27:58.749Z,92.73
2023-05-12T12:29:00.347Z,92.41
2023-05-12T12:30:02.578Z,92.89
2023-05-12T12:31:04.489Z,93.04
2023-05-12T12:32:06.252Z,93.17
2023-05-12T12:33:07.905Z,93.95
2023-05-12T12:34:09.921Z,93.18
2023-05-12T12:35:13.154Z,92.95
2023-05-12T12:36:14.810Z,92.92
2023-05-12T12:37:17.312Z,93.42
2023-05-12T12:38:18.948Z,92.91
2023-05-12T12:39:21.800Z,92.75
2023-05-12T12:40:23.598Z,92.87
2023-05-12T12:41:25.862Z,93.12
2023-05-12T12:42:27.456Z,93.75
2023-05-12T12:43:29.123Z,94.33
2023-05-12T12:44:30.739Z,93.19
2023-05-12T12:45:32.387Z,92.97
2023-05-12T12:46:34.162Z,93.06
2023-05-12T12:47:36.376Z,93.69
2023-05-12T12:48:37.956Z,93.97
2023-05-12T12:49:39.718Z,93.02
2023-05-12T12:50:41.478Z,93.52
2023-05-12T12:51:46.573Z,94.30
2023-05-12T12:52:49.241Z,95.11
2023-05-12T12:53:51.108Z,95.23
2023-05-12T12:54:52.822Z,95.06
2023-05-12T12:55:54.478Z,95.44
2023-05-12T12:56:56.661Z,95.44
2023-05-12T12:57:58.596Z,95.56
2023-05-12T12:59:00.206Z,95.42
2023-05-12T13:00:02.864Z,95.64
2023-05-12T13:01:04.641Z,95.38
2023-05-12T13:02:06.713Z,94.97
2023-05-12T13:03:08.444Z,94.63
2023-05-12T13:04:10.104Z,94.88
2023-05-12T13:05:11.813Z,94.57
2023-05-12T13:06:13.395Z,94.84
2023-05-12T13:07:15.141Z,95.00
2023-05-12T13:08:19.970Z,95.21
2023-05-12T13:09:21.593Z,95.19
2023-05-12T13:10:23.254Z,95.15
2023-05-12T13:11:24.876Z,95.56
2023-05-12T13:12:26.560Z,95.28
2023-05-12T13:13:28.156Z,95.18
2023-05-12T13:14:30.145Z,95.46
2023-05-12T13:15:32.415Z,95.64
2023-05-12T13:16:34.117Z,96.23
2023-05-12T13:17:36.096Z,95.94
2023-05-12T13:18:37.809Z,96.65
2023-05-12T13:19:39.527Z,96.30
2023-05-12T13:20:41.134Z,95.95
2023-05-12T13:21:42.751Z,96.04
2023-05-12T13:22:44.410Z,95.99
2023-05-12T13:23:46.060Z,95.61
2023-05-12T13:24:47.992Z,95.97
2023-05-12T13:25:50.452Z,95.53
2023-05-12T13:26:52.085Z,95.45
2023-05-12T13:27:53.846Z,96.16
2023-05-12T13:28:55.483Z,95.16
2023-05-12T13:29:57.222Z,94.96